createdAt,value
2022-10-09T00:08:51.908Z,101342.38
2022-10-09T00:18:56.405Z,101331.81
2022-10-09T00:29:01.645Z,101328.50
2022-10-09T00:39:05.327Z,101340.53
2022-10-09T00:49:22.113Z,101343.47
2022-10-09T00:59:26.267Z,101331.88
2022-10-09T01:09:41.224Z,101337.25
2022-10-09T01:20:12.478Z,101323.47
2022-10-09T01:30:18.021Z,101322.38
2022-10-09T01:40:22.709Z,101318.00
2022-10-09T01:50:34.029Z,101321.41
2022-10-09T02:00:40.626Z,101312.09
2022-10-09T02:10:48.159Z,101307.72
2022-10-09T02:20:56.887Z,101309.44
2022-10-09T02:31:10.331Z,101298.72
2022-10-09T02:41:14.440Z,101294.81
2022-10-09T02:51:20.427Z,101288.47
2022-10-09T03:01:24.566Z,101281.28
2022-10-09T03:11:29.899Z,101292.41
2022-10-09T03:21:33.777Z,101293.19
2022-10-09T03:31:51.691Z,101290.03
2022-10-09T03:41:57.794Z,101294.69
2022-10-09T03:52:02.915Z,101301.47
2022-10-09T04:02:06.579Z,101298.97
2022-10-09T04:12:11.697Z,101304.66
2022-10-09T04:22:15.364Z,101299.28
2022-10-09T04:32:20.338Z,101301.69
2022-10-09T04:42:24.066Z,101304.47
2022-10-09T04:52:29.318Z,101298.06
2022-10-09T05:02:32.990Z,101293.75
2022-10-09T05:12:38.087Z,101289.09
2022-10-09T05:22:41.676Z,101282.38
2022-10-09T05:32:47.030Z,101279.72
2022-10-09T05:42:51.649Z,101291.69
2022-10-09T05:52:57.011Z,101296.16
2022-10-09T06:03:03.380Z,101293.63
2022-10-09T06:13:08.555Z,101292.41
2022-10-09T06:23:12.163Z,101292.41
2022-10-09T06:33:17.758Z,101299.28
2022-10-09T06:43:22.739Z,101299.75
2022-10-09T06:53:27.862Z,101293.50
2022-10-09T07:03:31.864Z,101308.78
2022-10-09T07:13:37.243Z,101307.72
2022-10-09T07:23:41.024Z,101319.88
2022-10-09T07:33:48.496Z,101311.47
2022-10-09T07:43:52.482Z,101305.91
2022-10-09T07:53:59.918Z,101301.63
2022-10-09T08:04:04.883Z,101303.41
2022-10-09T08:14:18.772Z,101287.75
2022-10-09T08:24:22.883Z,101280.78
2022-10-09T08:34:28.140Z,101273.19
2022-10-09T08:44:39.041Z,101266.09
2022-10-09T08:54:44.826Z,101259.34
2022-10-09T09:05:00.381Z,101245.25
2022-10-09T09:15:25.797Z,101227.91
2022-10-09T09:25:34.406Z,101213.66
2022-10-09T09:35:47.966Z,101189.22
2022-10-09T09:45:55.073Z,101163.69
2022-10-09T09:56:01.072Z,101157.53
2022-10-09T10:06:05.626Z,101124.13
2022-10-09T10:16:12.291Z,101118.22
2022-10-09T10:26:25.381Z,101094.59
2022-10-09T10:36:30.436Z,101091.22
2022-10-09T10:46:44.433Z,101072.16
2022-10-09T10:56:55.198Z,101057.16
2022-10-09T11:07:17.791Z,101044.56
2022-10-09T11:17:32.607Z,101023.25
2022-10-09T11:27:44.065Z,101003.25
2022-10-09T11:37:59.911Z,100984.38
2022-10-09T11:48:10.014Z,100980.97
2022-10-09T11:58:25.902Z,100946.53
2022-10-09T12:08:30.155Z,100931.22
2022-10-09T12:18:38.725Z,100908.59
2022-10-09T12:28:50.086Z,100890.34
2022-10-09T12:38:55.631Z,100877.97
2022-10-09T12:49:00.900Z,100872.28
2022-10-09T12:59:07.442Z,100846.19
2022-10-09T13:09:21.857Z,100844.31
2022-10-09T13:19:30.416Z,100823.16
2022-10-09T13:29:34.568Z,100796.28
2022-10-09T13:39:39.806Z,100781.03
2022-10-09T13:49:43.705Z,100779.78
2022-10-09T13:59:50.713Z,100758.16
2022-10-09T14:09:55.329Z,100745.94
2022-10-09T14:20:00.778Z,100728.97
2022-10-09T14:30:05.768Z,100710.91
2022-10-09T14:40:12.450Z,100689.38
2022-10-09T14:50:16.982Z,100677.97
2022-10-09T15:00:23.131Z,100675.03
2022-10-09T15:10:26.852Z,100672.34
2022-10-09T15:20:32.064Z,100646.66
2022-10-09T15:30:35.789Z,100642.63
2022-10-09T15:40:46.703Z,100636.50
2022-10-09T15:50:53.436Z,100618.94
2022-10-09T16:01:08.285Z,100611.88
2022-10-09T16:11:14.660Z,100617.34
2022-10-09T16:21:22.514Z,100614.75
2022-10-09T16:31:30.505Z,100606.44
2022-10-09T16:41:40.996Z,100614.88
2022-10-09T16:51:45.726Z,100624.41
2022-10-09T17:01:50.860Z,100620.50
2022-10-09T17:11:54.477Z,100624.66
2022-10-09T17:22:02.764Z,100624.66
2022-10-09T17:32:08.032Z,100632.91
2022-10-09T17:42:13.053Z,100627.53
2022-10-09T17:52:16.917Z,100632.34
2022-10-09T18:02:22.041Z,100617.50
2022-10-09T18:12:25.749Z,100608.44
2022-10-09T18:22:30.742Z,100604.31
2022-10-09T18:32:34.440Z,100606.19
2022-10-09T18:42:39.549Z,100610.31
2022-10-09T18:52:44.305Z,100613.34
2022-10-09T19:02:49.261Z,100608.66
2022-10-09T19:12:54.300Z,100604.31
2022-10-09T19:22:59.301Z,100606.97
2022-10-09T19:33:03.007Z,100599.44
2022-10-09T19:43:08.623Z,100592.75
2022-10-09T19:53:14.221Z,100590.34
2022-10-09T20:03:19.847Z,100586.19
2022-10-09T20:13:29.961Z,100591.25
2022-10-09T20:23:35.634Z,100584.25
2022-10-09T20:33:40.397Z,100589.16
2022-10-09T20:43:46.279Z,100575.66
2022-10-09T20:53:55.757Z,100574.88
2022-10-09T21:04:00.719Z,100570.28
2022-10-09T21:14:04.676Z,100570.69
2022-10-09T21:24:12.675Z,100564.72
2022-10-09T21:34:16.298Z,100556.34
2022-10-09T21:44:21.242Z,100547.81
2022-10-09T21:54:25.431Z,100546.72
2022-10-09T22:04:30.741Z,100547.88
2022-10-09T22:14:34.443Z,100539.38
2022-10-09T22:24:39.551Z,100543.03
2022-10-09T22:34:44.644Z,100538.53
2022-10-09T22:44:57.122Z,100532.63
2022-10-09T22:55:03.483Z,100529.41
2022-10-09T23:05:09.616Z,100521.91
2022-10-09T23:15:13.306Z,100523.47
2022-10-09T23:25:18.459Z,100510.84
2022-10-09T23:35:22.033Z,100503.09
2022-10-09T23:45:28.016Z,100497.31
2022-10-09T23:55:31.610Z,100497.47
